Time;durP1;ratioP1;P1;durP2;ratioP2;P2;SDS_P1;SDS_P2;PMS_P1;PMS_P2;Temp;Humidity;BMP_temperature;BMP_pressure;BME280_temperature;BME280_humidity;BME280_pressure;Samples;Min_cycle;Max_cycle;Signal;HPM_P1;HPM_P2
2022/10/25 07:33:55;;;;;;;2.70;2.50;;;;;;;;;;6206504;22;20027;-77
2022/10/25 07:36:21;;;;;;;2.42;2.22;;;;;;;;;;6220092;23;20016;-81
2022/10/25 07:38:46;;;;;;;2.30;2.10;;;;;;;;;;6247046;23;20363;-78
2022/10/25 07:41:12;;;;;;;3.38;2.50;;;;;;;;;;6247071;23;20074;-78
2022/10/25 07:43:37;;;;;;;2.42;1.90;;;;;;;;;;6246734;22;20099;-77
2022/10/25 07:46:04;;;;;;;1.90;1.75;;;;;;;;;;6246921;23;20050;-79
2022/10/25 07:48:30;;;;;;;2.03;1.80;;;;;;;;;;6220048;23;20067;-80
2022/10/25 07:50:56;;;;;;;3.35;1.85;;;;;;;;;;6247213;23;20008;-79
2022/10/25 07:53:21;;;;;;;2.05;1.85;;;;;;;;;;6246468;22;20079;-80
2022/10/25 07:55:51;;;;;;;1.90;1.63;;;;;;;;;;6246826;23;20004;-79
2022/10/25 07:58:16;;;;;;;1.75;1.60;;;;;;;;;;6246711;23;20011;-78
2022/10/25 08:00:42;;;;;;;1.60;1.40;;;;;;;;;;6246982;23;20004;-80
2022/10/25 08:03:07;;;;;;;1.60;1.50;;;;;;;;;;6246882;22;20103;-79
2022/10/25 08:05:33;;;;;;;1.50;1.30;;;;;;;;;;6246685;23;20004;-79
2022/10/25 08:07:58;;;;;;;2.15;1.75;;;;;;;;;;6246699;23;20058;-79
2022/10/25 08:10:23;;;;;;;2.15;1.92;;;;;;;;;;6246800;23;20011;-79
2022/10/25 08:12:49;;;;;;;1.95;1.75;;;;;;;;;;6246736;22;20427;-81
2022/10/25 08:15:15;;;;;;;1.95;1.75;;;;;;;;;;6246650;23;20004;-78
2022/10/25 08:17:41;;;;;;;1.95;1.70;;;;;;;;;;6246670;23;20011;-81
2022/10/25 08:20:07;;;;;;;1.80;1.70;;;;;;;;;;6246826;23;20076;-80
2022/10/25 08:22:32;;;;;;;2.15;1.70;;;;;;;;;;6246664;22;20031;-79
2022/10/25 08:24:58;;;;;;;2.55;1.85;;;;;;;;;;6246779;23;20032;-78
2022/10/25 08:27:23;;;;;;;2.85;2.30;;;;;;;;;;6246719;23;20054;-78
2022/10/25 08:29:48;;;;;;;2.17;1.98;;;;;;;;;;6246415;23;20072;-78
2022/10/25 08:32:14;;;;;;;2.08;1.67;;;;;;;;;;6219645;23;20015;-78
2022/10/25 08:34:39;;;;;;;2.13;1.90;;;;;;;;;;6246120;23;20019;-79
2022/10/25 08:37:05;;;;;;;3.50;1.88;;;;;;;;;;6246536;23;20371;-78
2022/10/25 08:39:30;;;;;;;2.13;1.40;;;;;;;;;;6246644;23;20004;-79
2022/10/25 08:41:58;;;;;;;1.58;1.40;;;;;;;;;;6246564;22;20087;-77
2022/10/25 08:44:42;;;;;;;2.72;1.63;;;;;;;;;;6246555;23;20018;-77
2022/10/25 08:47:26;;;;;;;1.55;1.40;;;;;;;;;;6246615;23;20035;-78
2022/10/25 08:50:03;;;;;;;1.63;1.52;;;;;;;;;;6246793;23;20004;-77
2022/10/25 08:52:37;;;;;;;1.50;1.40;;;;;;;;;;6246406;22;20000;-78
2022/10/25 08:55:09;;;;;;;2.85;1.70;;;;;;;;;;6246536;23;20420;-78
2022/10/25 08:57:40;;;;;;;3.13;1.50;;;;;;;;;;6246640;23;20000;-77
2022/10/25 09:00:12;;;;;;;3.15;1.70;;;;;;;;;;6246689;23;20000;-76
2022/10/25 09:03:00;;;;;;;4.15;1.83;;;;;;;;;;6246374;22;20375;-77
2022/10/25 09:05:43;;;;;;;1.90;1.80;;;;;;;;;;6246348;23;20344;-80
2022/10/25 09:08:39;;;;;;;1.90;1.70;;;;;;;;;;6219640;23;20000;-80
2022/10/25 09:11:41;;;;;;;1.70;1.60;;;;;;;;;;6246397;23;20011;-78
2022/10/25 09:14:33;;;;;;;1.80;1.52;;;;;;;;;;6246594;23;20004;-79
2022/10/25 09:17:14;;;;;;;1.73;1.33;;;;;;;;;;6246126;23;20004;-76
2022/10/25 09:19:51;;;;;;;2.35;1.40;;;;;;;;;;6246355;23;20325;-78
2022/10/25 09:22:48;;;;;;;1.50;1.40;;;;;;;;;;6246277;22;20000;-77
2022/10/25 09:25:42;;;;;;;1.63;1.50;;;;;;;;;;6245734;23;20012;-78
2022/10/25 09:28:15;;;;;;;2.53;1.38;;;;;;;;;;6191464;23;20058;-78
2022/10/25 09:30:43;;;;;;;1.60;1.50;;;;;;;;;;6246364;23;20003;-81
2022/10/25 09:33:12;;;;;;;1.45;1.35;;;;;;;;;;6246258;22;20412;-79
2022/10/25 09:35:44;;;;;;;2.15;1.40;;;;;;;;;;6246440;23;20008;-81
2022/10/25 09:38:19;;;;;;;2.25;1.63;;;;;;;;;;6246220;23;20004;-87
2022/10/25 09:40:48;;;;;;;2.28;1.40;;;;;;;;;;6246527;23;20026;-79
2022/10/25 09:43:22;;;;;;;3.42;1.60;;;;;;;;;;6246313;22;20509;-79
2022/10/25 09:45:53;;;;;;;3.90;1.83;;;;;;;;;;6246146;23;20083;-76
2022/10/25 09:48:51;;;;;;;1.40;1.30;;;;;;;;;;6246449;23;20031;-77
2022/10/25 09:51:38;;;;;;;4.95;4.20;;;;;;;;;;6163375;23;20035;-80
2022/10/25 09:54:14;;;;;;;3.53;2.15;;;;;;;;;;6219238;23;20016;-79
2022/10/25 09:56:39;;;;;;;2.05;1.85;;;;;;;;;;6246245;23;20000;-79
2022/10/25 09:59:05;;;;;;;1.60;1.50;;;;;;;;;;6246234;23;20099;-80
2022/10/25 10:01:34;;;;;;;1.60;1.50;;;;;;;;;;6246251;23;20000;-81
2022/10/25 10:04:33;;;;;;;3.42;1.40;;;;;;;;;;6246009;22;20004;-80
2022/10/25 10:07:02;;;;;;;;;;;;;;;;;;6246004;23;20012;-80
2022/10/25 10:09:28;;;;;;;;;;;;;;;;;;6219931;23;20267;-79
2022/10/25 10:11:55;;;;;;;1.58;1.48;;;;;;;;;;6246217;22;19911;-83
2022/10/25 10:14:27;;;;;;;1.10;1.10;;;;;;;;;;6245744;23;20392;-80
2022/10/25 10:16:56;;;;;;;3.33;1.38;;;;;;;;;;6246152;23;20407;-80
2022/10/25 10:19:24;;;;;;;1.50;1.40;;;;;;;;;;6219933;23;20323;-79
2022/10/25 10:21:53;;;;;;;3.30;1.58;;;;;;;;;;6246100;22;20053;-83
2022/10/25 10:24:26;;;;;;;1.67;1.13;;;;;;;;;;6247414;23;20007;-80
2022/10/25 10:26:56;;;;;;;1.30;1.20;;;;;;;;;;6246393;23;20036;-80
2022/10/25 10:29:30;;;;;;;1.42;1.30;;;;;;;;;;6247278;23;20419;-80
2022/10/25 10:32:01;;;;;;;1.10;1.10;;;;;;;;;;6247971;22;20012;-80
2022/10/25 10:34:49;;;;;;;1.20;1.10;;;;;;;;;;6246538;23;20435;-80
2022/10/25 10:37:16;;;;;;;1.35;1.25;;;;;;;;;;6246065;23;20339;-82
2022/10/25 10:39:54;;;;;;;1.40;1.30;;;;;;;;;;6246271;23;20027;-82
2022/10/25 10:42:35;;;;;;;1.40;1.30;;;;;;;;;;6246003;22;20008;-79
2022/10/25 10:45:07;;;;;;;2.58;1.52;;;;;;;;;;6245982;23;20000;-78
2022/10/25 10:47:44;;;;;;;2.17;2.08;;;;;;;;;;6246025;23;20455;-78
2022/10/25 10:50:24;;;;;;;3.25;1.35;;;;;;;;;;6246232;23;20372;-78
2022/10/25 10:52:52;;;;;;;1.02;1.02;;;;;;;;;;6245794;22;20000;-77
2022/10/25 10:55:36;;;;;;;1.50;1.30;;;;;;;;;;6246134;23;20007;-82
2022/10/25 10:58:39;;;;;;;1.70;1.60;;;;;;;;;;6221058;23;20420;-77
2022/10/25 11:01:15;;;;;;;1.25;1.15;;;;;;;;;;6245259;23;20035;-78
2022/10/25 11:03:40;;;;;;;1.30;1.20;;;;;;;;;;6245474;22;20005;-77
2022/10/25 11:06:26;;;;;;;1.55;1.45;;;;;;;;;;6245759;23;20053;-77
2022/10/25 11:09:14;;;;;;;3.03;1.48;;;;;;;;;;6245694;23;20004;-77
2022/10/25 11:11:40;;;;;;;2.10;1.50;;;;;;;;;;6245575;22;20008;-77
2022/10/25 11:14:16;;;;;;;1.38;1.10;;;;;;;;;;6245646;23;20004;-77
2022/10/25 11:16:56;;;;;;;1.92;1.67;;;;;;;;;;6245696;23;20022;-77
2022/10/25 11:19:46;;;;;;;2.35;1.33;;;;;;;;;;6245566;23;20442;-84
2022/10/25 11:22:27;;;;;;;1.17;1.02;;;;;;;;;;6245973;22;20119;-77
2022/10/25 11:24:59;;;;;;;1.55;1.35;;;;;;;;;;6245795;23;20008;-78
2022/10/25 11:27:49;;;;;;;2.90;2.60;;;;;;;;;;6245827;23;20000;-77
2022/10/25 11:30:16;;;;;;;1.40;1.30;;;;;;;;;;6245549;23;20008;-77
2022/10/25 11:33:04;;;;;;;1.90;1.67;;;;;;;;;;6245439;22;20304;-79
2022/10/25 11:35:58;;;;;;;2.63;1.90;;;;;;;;;;6196445;23;1169761;-81
2022/10/25 11:39:00;;;;;;;1.95;1.42;;;;;;;;;;6247394;23;20016;-81
2022/10/25 11:41:46;;;;;;;1.60;1.50;;;;;;;;;;6246876;23;20000;-85
2022/10/25 11:44:17;;;;;;;1.67;1.58;;;;;;;;;;6247195;23;20053;-86
2022/10/25 11:47:10;;;;;;;1.88;1.60;;;;;;;;;;6247542;23;20004;-83
2022/10/25 11:49:53;;;;;;;1.52;1.42;;;;;;;;;;6247735;23;20055;-84
2022/10/25 11:52:59;;;;;;;1.67;1.58;;;;;;;;;;6247899;22;20059;-89
2022/10/25 11:55:41;;;;;;;2.83;1.50;;;;;;;;;;6247744;23;20004;-89
2022/10/25 11:58:31;;;;;;;1.45;1.35;;;;;;;;;;6247716;23;20327;-84
2022/10/25 12:01:10;;;;;;;1.40;1.30;;;;;;;;;;6249749;23;20008;-83
2022/10/25 12:03:47;;;;;;;1.58;1.30;;;;;;;;;;6249587;22;20000;-84
2022/10/25 12:06:46;;;;;;;1.77;1.40;;;;;;;;;;6248397;23;20010;-87
2022/10/25 12:09:23;;;;;;;1.30;1.20;;;;;;;;;;6247608;23;20011;-82
2022/10/25 12:11:59;;;;;;;1.73;1.30;;;;;;;;;;6247257;22;20479;-85
2022/10/25 12:14:32;;;;;;;2.85;1.50;;;;;;;;;;6247578;23;20008;-85
2022/10/25 12:17:00;;;;;;;1.23;1.13;;;;;;;;;;6248169;23;20027;-84
2022/10/25 12:19:36;;;;;;;1.98;1.27;;;;;;;;;;6249063;23;20000;-84
2022/10/25 12:22:10;;;;;;;1.50;1.30;;;;;;;;;;6249636;22;20332;-83
2022/10/25 12:24:45;;;;;;;1.50;1.40;;;;;;;;;;6250516;23;20434;-83
2022/10/25 12:27:12;;;;;;;1.25;1.20;;;;;;;;;;6222847;23;20009;-87
2022/10/25 12:29:42;;;;;;;1.55;1.02;;;;;;;;;;6250086;23;20003;-84
2022/10/25 12:32:15;;;;;;;1.35;1.25;;;;;;;;;;6249978;22;20004;-83
2022/10/25 12:34:46;;;;;;;2.55;2.35;;;;;;;;;;6248629;23;20012;-87
2022/10/25 12:37:35;;;;;;;2.55;1.80;;;;;;;;;;6251566;23;20039;-82
2022/10/25 12:40:01;;;;;;;3.00;1.48;;;;;;;;;;6250102;23;20004;-83
2022/10/25 12:42:40;;;;;;;1.20;1.10;;;;;;;;;;6220715;23;20336;-83
2022/10/25 12:45:33;;;;;;;2.05;1.13;;;;;;;;;;6247531;23;20007;-85
2022/10/25 12:48:16;;;;;;;2.15;1.00;;;;;;;;;;6247523;23;20015;-84
2022/10/25 12:51:03;;;;;;;1.75;1.27;;;;;;;;;;6247212;23;20004;-88
2022/10/25 12:53:52;;;;;;;1.90;1.23;;;;;;;;;;6246698;22;20007;-84
2022/10/25 12:56:36;;;;;;;2.13;1.30;;;;;;;;;;6247311;23;20004;-89
2022/10/25 12:59:39;;;;;;;4.68;1.50;;;;;;;;;;6247260;23;20071;-84
2022/10/25 13:02:26;;;;;;;2.13;1.60;;;;;;;;;;6246957;22;20059;-83
2022/10/25 13:05:03;;;;;;;4.35;2.22;;;;;;;;;;6246796;23;20008;-83
2022/10/25 13:07:31;;;;;;;1.85;1.02;;;;;;;;;;6246872;23;20004;-88
2022/10/25 13:10:18;;;;;;;3.70;1.73;;;;;;;;;;6247226;23;20004;-84
2022/10/25 13:13:13;;;;;;;1.52;1.35;;;;;;;;;;6220388;23;20020;-86
2022/10/25 13:15:49;;;;;;;6.70;2.75;;;;;;;;;;6246942;23;20027;-82
2022/10/25 13:18:44;;;;;;;4.13;2.08;;;;;;;;;;6246634;23;20494;-85
2022/10/25 13:21:43;;;;;;;3.03;1.67;;;;;;;;;;6230992;23;20449;-82
2022/10/25 13:24:10;;;;;;;2.30;1.63;;;;;;;;;;6245535;23;20000;-84
2022/10/25 13:27:17;;;;;;;1.50;1.40;;;;;;;;;;6246938;23;20004;-85
2022/10/25 13:30:02;;;;;;;2.55;1.20;;;;;;;;;;6246615;23;20000;-87
2022/10/25 13:32:33;;;;;;;2.03;1.40;;;;;;;;;;6246740;22;20138;-83
2022/10/25 13:35:01;;;;;;;2.47;1.15;;;;;;;;;;6246331;23;20016;-83
2022/10/25 13:37:32;;;;;;;3.05;1.50;;;;;;;;;;6246635;23;20312;-84
2022/10/25 13:40:02;;;;;;;1.83;1.13;;;;;;;;;;6246960;23;20054;-92
2022/10/25 13:42:36;;;;;;;4.60;1.85;;;;;;;;;;6246236;22;20336;-83
2022/10/25 13:45:01;;;;;;;2.35;1.00;;;;;;;;;;6246769;23;20062;-89
2022/10/25 13:47:45;;;;;;;1.40;1.10;;;;;;;;;;6219817;23;20416;-90
2022/10/25 13:50:29;;;;;;;3.58;1.30;;;;;;;;;;6246793;23;19996;-82
2022/10/25 13:53:08;;;;;;;1.80;1.60;;;;;;;;;;6246342;22;20419;-83
2022/10/25 13:55:45;;;;;;;1.90;1.30;;;;;;;;;;6246962;23;20004;-84
2022/10/25 13:58:29;;;;;;;1.88;1.30;;;;;;;;;;6246756;23;20043;-84
2022/10/25 14:01:15;;;;;;;1.45;1.17;;;;;;;;;;6220889;23;20058;-83
2022/10/25 14:03:44;;;;;;;2.00;1.17;;;;;;;;;;6246294;22;20004;-87
2022/10/25 14:06:20;;;;;;;1.48;1.30;;;;;;;;;;6221806;23;20398;-84
2022/10/25 14:08:58;;;;;;;1.85;1.40;;;;;;;;;;6248271;23;20007;-82
2022/10/25 14:11:41;;;;;;;1.60;1.38;;;;;;;;;;6248004;23;20000;-93
2022/10/25 14:14:22;;;;;;;2.63;1.45;;;;;;;;;;6248602;23;20008;-82
2022/10/25 14:16:58;;;;;;;4.28;1.52;;;;;;;;;;6247719;23;20446;-83
2022/10/25 14:19:30;;;;;;;2.05;1.30;;;;;;;;;;6248171;23;20387;-86
2022/10/25 14:21:56;;;;;;;3.72;1.60;;;;;;;;;;6248151;22;20000;-83
2022/10/25 14:24:21;;;;;;;2.70;1.33;;;;;;;;;;6221522;23;20470;-86
2022/10/25 14:26:56;;;;;;;1.48;1.38;;;;;;;;;;6247858;23;20000;-83
2022/10/25 14:29:25;;;;;;;2.20;1.00;;;;;;;;;;6247987;23;20000;-82
2022/10/25 14:31:51;;;;;;;3.15;1.48;;;;;;;;;;6248204;22;20019;-83
2022/10/25 14:34:26;;;;;;;3.70;1.70;;;;;;;;;;6247655;23;20027;-82
2022/10/25 14:36:56;;;;;;;1.55;1.33;;;;;;;;;;6247820;23;20000;-82
2022/10/25 14:39:29;;;;;;;1.23;1.13;;;;;;;;;;6247955;23;20008;-82
2022/10/25 14:41:57;;;;;;;2.35;1.20;;;;;;;;;;6247576;22;20435;-85
2022/10/25 14:44:28;;;;;;;1.90;1.50;;;;;;;;;;6248041;23;20059;-84
2022/10/25 14:46:56;;;;;;;2.75;1.40;;;;;;;;;;6220914;23;20451;-83
2022/10/25 14:49:22;;;;;;;1.60;1.40;;;;;;;;;;6247900;23;20090;-86
2022/10/25 14:51:53;;;;;;;1.90;1.30;;;;;;;;;;6247850;22;20323;-93
2022/10/25 14:54:26;;;;;;;3.72;1.48;;;;;;;;;;6247779;23;20018;-84
2022/10/25 14:56:59;;;;;;;2.58;1.40;;;;;;;;;;6248097;23;20027;-84
2022/10/25 14:59:29;;;;;;;2.13;1.30;;;;;;;;;;6247957;23;20011;-82
2022/10/25 15:02:08;;;;;;;1.50;1.40;;;;;;;;;;6247528;22;20004;-86
2022/10/25 15:04:39;;;;;;;2.17;1.40;;;;;;;;;;6248333;23;20004;-83
2022/10/25 15:07:06;;;;;;;2.47;1.63;;;;;;;;;;6247761;23;20323;-84
2022/10/25 15:09:32;;;;;;;2.50;1.52;;;;;;;;;;6247824;23;20026;-81
2022/10/25 15:12:03;;;;;;;3.72;1.13;;;;;;;;;;6247530;22;20001;-83
2022/10/25 15:14:29;;;;;;;2.08;1.27;;;;;;;;;;6247294;23;20011;-81
2022/10/25 15:17:13;;;;;;;3.85;2.10;;;;;;;;;;6247367;23;20450;-81
2022/10/25 15:20:24;;;;;;;3.53;1.75;;;;;;;;;;6248365;23;20019;-89
2022/10/25 15:22:50;;;;;;;1.42;1.27;;;;;;;;;;6247801;22;20004;-85
2022/10/25 15:25:29;;;;;;;2.00;1.58;;;;;;;;;;6248763;23;20304;-81
2022/10/25 15:27:55;;;;;;;2.05;1.20;;;;;;;;;;6247890;23;20454;-82
2022/10/25 15:30:48;;;;;;;2.25;1.38;;;;;;;;;;6247598;23;20000;-88
2022/10/25 15:33:40;;;;;;;1.55;1.40;;;;;;;;;;6247512;22;20011;-81
2022/10/25 15:36:06;;;;;;;2.85;1.40;;;;;;;;;;6241108;23;20011;-82
2022/10/25 15:38:34;;;;;;;1.60;1.50;;;;;;;;;;6247613;23;20309;-94
2022/10/25 15:41:01;;;;;;;3.78;1.50;;;;;;;;;;6249127;23;20035;-88
2022/10/25 15:43:28;;;;;;;2.28;1.70;;;;;;;;;;6250019;22;20004;-87
2022/10/25 15:45:54;;;;;;;3.17;1.67;;;;;;;;;;6248460;23;20000;-82
2022/10/25 15:48:22;;;;;;;2.72;1.45;;;;;;;;;;6248627;23;20471;-90
2022/10/25 15:50:53;;;;;;;2.28;1.73;;;;;;;;;;6247736;23;19992;-88
2022/10/25 15:53:18;;;;;;;2.72;1.42;;;;;;;;;;6247441;22;20004;-82
2022/10/25 15:55:44;;;;;;;2.13;1.50;;;;;;;;;;6247689;23;20489;-88
2022/10/25 15:58:09;;;;;;;1.58;1.40;;;;;;;;;;6247577;23;20000;-84
2022/10/25 16:00:35;;;;;;;3.35;1.50;;;;;;;;;;6247270;23;20068;-87
2022/10/25 16:03:01;;;;;;;1.73;1.55;;;;;;;;;;6247274;22;20328;-84
2022/10/25 16:05:33;;;;;;;1.70;1.60;;;;;;;;;;6247412;23;20390;-82
2022/10/25 16:07:59;;;;;;;2.22;1.70;;;;;;;;;;6247413;23;20000;-84
2022/10/25 16:10:26;;;;;;;4.30;1.73;;;;;;;;;;6247325;23;20007;-84
2022/10/25 16:13:04;;;;;;;1.80;1.70;;;;;;;;;;6248011;22;20028;-82
2022/10/25 16:15:30;;;;;;;2.08;1.70;;;;;;;;;;6247067;23;20424;-80
2022/10/25 16:17:55;;;;;;;1.83;1.70;;;;;;;;;;6247175;23;20006;-82
2022/10/25 16:20:21;;;;;;;3.15;1.80;;;;;;;;;;6247799;23;20319;-83
2022/10/25 16:22:47;;;;;;;2.38;1.70;;;;;;;;;;6246855;22;20403;-82
2022/10/25 16:25:13;;;;;;;3.45;2.00;;;;;;;;;;6246931;23;20000;-89
2022/10/25 16:27:40;;;;;;;1.88;1.70;;;;;;;;;;6246658;23;20071;-87
2022/10/25 16:30:14;;;;;;;2.50;1.60;;;;;;;;;;6220332;23;20007;-83
2022/10/25 16:32:40;;;;;;;7.40;2.10;;;;;;;;;;6246960;22;20031;-86
2022/10/25 16:35:07;;;;;;;3.17;2.05;;;;;;;;;;6246659;23;20020;-85
2022/10/25 16:37:32;;;;;;;2.20;1.80;;;;;;;;;;6246793;23;20386;-82
2022/10/25 16:39:57;;;;;;;4.45;2.30;;;;;;;;;;6247795;23;20031;-80
2022/10/25 16:42:32;;;;;;;2.97;1.85;;;;;;;;;;6247764;22;20004;-86
2022/10/25 16:44:58;;;;;;;3.53;2.10;;;;;;;;;;6247733;23;20427;-86
2022/10/25 16:47:25;;;;;;;3.58;1.98;;;;;;;;;;6247942;23;20006;-85
2022/10/25 16:49:50;;;;;;;2.70;2.08;;;;;;;;;;6247947;23;20000;-87
2022/10/25 16:52:17;;;;;;;3.60;2.20;;;;;;;;;;6246144;22;20015;-85
2022/10/25 16:54:42;;;;;;;5.63;2.10;;;;;;;;;;6246966;23;20066;-83
2022/10/25 16:57:08;;;;;;;2.30;1.88;;;;;;;;;;6246994;23;20000;-85
2022/10/25 16:59:33;;;;;;;2.90;1.90;;;;;;;;;;6246702;23;20004;-87
2022/10/25 17:01:59;;;;;;;4.40;2.40;;;;;;;;;;6219696;22;20098;-81
2022/10/25 17:04:25;;;;;;;4.13;2.20;;;;;;;;;;6247113;23;20000;-84
2022/10/25 17:06:50;;;;;;;3.38;1.90;;;;;;;;;;6246581;23;20059;-88
2022/10/25 17:09:16;;;;;;;2.53;2.30;;;;;;;;;;6246351;23;20004;-85
2022/10/25 17:11:42;;;;;;;2.58;2.00;;;;;;;;;;6247134;22;20004;-87
2022/10/25 17:14:09;;;;;;;2.47;2.08;;;;;;;;;;6247176;23;20000;-87
2022/10/25 17:16:35;;;;;;;4.22;2.33;;;;;;;;;;6247029;23;20027;-86
2022/10/25 17:19:03;;;;;;;4.72;3.00;;;;;;;;;;6246465;23;19996;-89
2022/10/25 17:21:30;;;;;;;5.97;2.88;;;;;;;;;;6247132;23;20053;-85
2022/10/25 17:23:55;;;;;;;5.40;3.80;;;;;;;;;;6247061;22;20062;-85
2022/10/25 17:26:21;;;;;;;7.90;5.38;;;;;;;;;;6247218;23;20004;-83
2022/10/25 17:28:46;;;;;;;5.32;3.15;;;;;;;;;;6247322;23;20007;-85
2022/10/25 17:31:13;;;;;;;3.97;2.70;;;;;;;;;;6246694;23;20443;-87
2022/10/25 17:33:39;;;;;;;4.65;2.42;;;;;;;;;;6245997;22;20020;-86
2022/10/25 17:36:14;;;;;;;3.90;2.58;;;;;;;;;;6219801;23;20023;-85
2022/10/25 17:38:40;;;;;;;3.30;2.78;;;;;;;;;;6247169;23;20000;-86
2022/10/25 17:41:06;;;;;;;5.65;2.92;;;;;;;;;;6248465;23;20075;-86
2022/10/25 17:43:37;;;;;;;4.72;2.67;;;;;;;;;;6248379;22;20024;-83
2022/10/25 17:46:05;;;;;;;4.20;2.63;;;;;;;;;;6248382;23;20004;-87
2022/10/25 17:48:31;;;;;;;5.20;2.50;;;;;;;;;;6248522;23;20000;-87
2022/10/25 17:51:06;;;;;;;5.47;2.63;;;;;;;;;;6248138;23;20011;-86
2022/10/25 17:53:32;;;;;;;5.88;2.53;;;;;;;;;;6248254;22;20075;-89
2022/10/25 17:55:57;;;;;;;7.13;2.95;;;;;;;;;;6247098;23;20360;-84
2022/10/25 17:58:23;;;;;;;6.93;2.25;;;;;;;;;;6248278;23;20071;-88
2022/10/25 18:00:49;;;;;;;5.20;3.63;;;;;;;;;;6247809;23;20003;-83
2022/10/25 18:03:14;;;;;;;4.47;3.42;;;;;;;;;;6248103;22;20011;-84
2022/10/25 18:05:39;;;;;;;9.30;2.90;;;;;;;;;;6247905;23;20446;-83
2022/10/25 18:08:06;;;;;;;5.03;3.08;;;;;;;;;;6248106;23;20077;-85
2022/10/25 18:10:34;;;;;;;3.95;2.83;;;;;;;;;;6248510;23;20028;-84
2022/10/25 18:13:00;;;;;;;11.00;3.15;;;;;;;;;;6221038;23;20054;-85
2022/10/25 18:15:26;;;;;;;4.75;3.30;;;;;;;;;;6247794;23;20016;-87
2022/10/25 18:17:51;;;;;;;3.17;2.75;;;;;;;;;;6247919;23;20102;-87
2022/10/25 18:20:17;;;;;;;4.90;3.15;;;;;;;;;;6220717;23;20008;-86
2022/10/25 18:22:43;;;;;;;9.38;3.92;;;;;;;;;;6247739;22;20011;-87
2022/10/25 18:25:09;;;;;;;5.45;3.47;;;;;;;;;;6247612;23;20008;-86
2022/10/25 18:27:34;;;;;;;10.10;3.22;;;;;;;;;;6220839;23;20012;-86
2022/10/25 18:30:00;;;;;;;6.07;4.30;;;;;;;;;;6195676;23;20410;-85
2022/10/25 18:32:27;;;;;;;5.20;3.45;;;;;;;;;;6247601;22;20374;-87
2022/10/25 18:34:53;;;;;;;9.75;3.88;;;;;;;;;;6247827;23;20026;-85
2022/10/25 18:37:19;;;;;;;5.55;3.47;;;;;;;;;;6221005;23;20387;-85
2022/10/25 18:39:44;;;;;;;4.00;2.83;;;;;;;;;;6247529;23;20034;-85
2022/10/25 18:42:10;;;;;;;6.30;3.13;;;;;;;;;;6247635;22;20039;-83
2022/10/25 18:44:35;;;;;;;3.20;2.50;;;;;;;;;;6247754;23;20000;-87
2022/10/25 18:47:00;;;;;;;6.63;3.10;;;;;;;;;;6247690;23;20062;-86
2022/10/25 18:49:26;;;;;;;4.78;2.95;;;;;;;;;;6247156;23;20004;-84
2022/10/25 18:51:51;;;;;;;4.30;2.70;;;;;;;;;;6247308;22;20042;-86
2022/10/25 18:54:17;;;;;;;5.43;3.40;;;;;;;;;;6247516;23;20004;-86
2022/10/25 18:56:43;;;;;;;6.22;3.20;;;;;;;;;;6247560;23;20061;-84
2022/10/25 18:59:08;;;;;;;5.53;3.15;;;;;;;;;;6247575;23;20000;-83
2022/10/25 19:01:34;;;;;;;4.53;3.35;;;;;;;;;;6247596;23;20008;-84
2022/10/25 19:04:02;;;;;;;4.43;2.83;;;;;;;;;;6247354;22;20011;-83
2022/10/25 19:06:28;;;;;;;6.95;3.30;;;;;;;;;;6247609;23;19997;-83
2022/10/25 19:08:54;;;;;;;5.70;3.25;;;;;;;;;;6247815;23;20011;-84
2022/10/25 19:11:19;;;;;;;5.97;3.05;;;;;;;;;;6247466;23;20004;-90
2022/10/25 19:13:45;;;;;;;6.38;4.38;;;;;;;;;;6247331;22;20000;-91
2022/10/25 19:16:15;;;;;;;7.40;3.70;;;;;;;;;;6247222;23;20011;-85
2022/10/25 19:18:41;;;;;;;4.53;3.40;;;;;;;;;;6220491;23;20331;-85
2022/10/25 19:21:12;;;;;;;7.10;3.53;;;;;;;;;;6247837;23;20001;-85
2022/10/25 19:23:40;;;;;;;7.90;3.10;;;;;;;;;;6247175;22;20058;-85
2022/10/25 19:26:08;;;;;;;10.15;3.13;;;;;;;;;;6247367;23;20356;-85
2022/10/25 19:28:34;;;;;;;3.83;2.70;;;;;;;;;;6247193;23;20423;-85
2022/10/25 19:31:14;;;;;;;6.05;3.67;;;;;;;;;;6247540;23;20071;-85
2022/10/25 19:33:44;;;;;;;5.60;3.90;;;;;;;;;;6220033;23;20336;-85
2022/10/25 19:36:10;;;;;;;5.78;3.53;;;;;;;;;;6247223;23;20008;-84
2022/10/25 19:38:37;;;;;;;5.32;3.53;;;;;;;;;;6247276;23;20564;-86
2022/10/25 19:41:04;;;;;;;7.07;3.83;;;;;;;;;;6247208;23;20007;-87
2022/10/25 19:43:30;;;;;;;3.47;3.17;;;;;;;;;;6246932;22;19992;-87
2022/10/25 19:45:58;;;;;;;4.72;3.38;;;;;;;;;;6220327;23;20008;-88
2022/10/25 19:48:24;;;;;;;7.63;3.60;;;;;;;;;;6247153;23;20012;-86
2022/10/25 19:50:50;;;;;;;5.47;3.33;;;;;;;;;;6246932;23;20016;-87
2022/10/25 19:53:18;;;;;;;8.43;3.83;;;;;;;;;;6246904;22;20004;-86
2022/10/25 19:55:55;;;;;;;4.93;3.30;;;;;;;;;;6247014;23;20007;-85
2022/10/25 19:58:21;;;;;;;4.90;3.38;;;;;;;;;;6246909;23;20004;-86
2022/10/25 20:00:46;;;;;;;6.63;4.07;;;;;;;;;;6246974;23;20488;-86
2022/10/25 20:03:12;;;;;;;5.50;4.45;;;;;;;;;;6246674;22;20007;-86
2022/10/25 20:05:37;;;;;;;7.85;3.90;;;;;;;;;;6246993;23;20008;-86
2022/10/25 20:08:04;;;;;;;9.30;3.80;;;;;;;;;;6246817;23;20434;-86
2022/10/25 20:10:29;;;;;;;4.95;3.85;;;;;;;;;;6247012;23;20007;-86
2022/10/25 20:12:54;;;;;;;6.53;3.63;;;;;;;;;;6219977;23;20008;-86
2022/10/25 20:15:20;;;;;;;7.20;4.22;;;;;;;;;;6246626;23;20008;-86
2022/10/25 20:17:45;;;;;;;4.00;3.50;;;;;;;;;;6247012;23;20434;-86
2022/10/25 20:20:11;;;;;;;7.68;4.38;;;;;;;;;;6247095;23;20414;-86
2022/10/25 20:22:36;;;;;;;4.32;3.92;;;;;;;;;;6246852;22;20099;-86
2022/10/25 20:25:04;;;;;;;4.38;3.70;;;;;;;;;;6246806;23;20008;-85
2022/10/25 20:27:31;;;;;;;6.25;3.65;;;;;;;;;;6247008;23;20000;-86
2022/10/25 20:29:56;;;;;;;8.25;4.32;;;;;;;;;;6246847;23;20412;-85
2022/10/25 20:32:21;;;;;;;7.13;3.90;;;;;;;;;;6246861;22;20049;-86
2022/10/25 20:34:47;;;;;;;6.25;3.97;;;;;;;;;;6246624;23;20015;-86
2022/10/25 20:37:12;;;;;;;9.48;4.70;;;;;;;;;;6246676;23;20135;-86
2022/10/25 20:39:38;;;;;;;7.03;4.18;;;;;;;;;;6246692;23;20010;-86
2022/10/25 20:42:03;;;;;;;8.57;4.57;;;;;;;;;;6246891;22;20000;-85
2022/10/25 20:44:28;;;;;;;6.43;4.65;;;;;;;;;;6247039;23;20006;-85
2022/10/25 20:46:54;;;;;;;8.32;4.78;;;;;;;;;;6246525;23;20015;-86
2022/10/25 20:49:19;;;;;;;8.60;5.90;;;;;;;;;;6246721;23;20039;-85
2022/10/25 20:51:45;;;;;;;6.03;5.18;;;;;;;;;;6246455;22;20060;-86
2022/10/25 20:54:10;;;;;;;5.10;4.07;;;;;;;;;;6247150;23;20004;-86
2022/10/25 20:56:36;;;;;;;6.38;4.10;;;;;;;;;;6246517;23;20010;-86
2022/10/25 20:59:02;;;;;;;7.25;4.80;;;;;;;;;;6246673;23;20011;-86
2022/10/25 21:01:28;;;;;;;5.53;4.10;;;;;;;;;;6246560;23;20004;-86
2022/10/25 21:03:53;;;;;;;4.82;4.13;;;;;;;;;;6246441;22;20004;-86
2022/10/25 21:06:19;;;;;;;5.63;4.18;;;;;;;;;;6246608;23;20074;-86
2022/10/25 21:08:44;;;;;;;6.75;3.97;;;;;;;;;;6246506;23;20011;-86
2022/10/25 21:11:11;;;;;;;6.18;4.20;;;;;;;;;;6246516;23;20064;-85
2022/10/25 21:13:37;;;;;;;8.20;4.60;;;;;;;;;;6245866;22;19999;-85
2022/10/25 21:16:11;;;;;;;6.72;4.38;;;;;;;;;;6219789;23;20050;-86
2022/10/25 21:18:37;;;;;;;7.22;4.25;;;;;;;;;;6246527;23;20000;-86
2022/10/25 21:21:05;;;;;;;6.10;4.30;;;;;;;;;;6219368;23;20083;-86
2022/10/25 21:23:31;;;;;;;9.40;4.17;;;;;;;;;;6246406;22;20004;-86
2022/10/25 21:26:02;;;;;;;8.25;4.00;;;;;;;;;;6246424;23;20137;-86
2022/10/25 21:28:31;;;;;;;6.15;4.05;;;;;;;;;;6246593;23;20000;-88
